Time;durP1;ratioP1;P1;durP2;ratioP2;P2;SDS_P1;SDS_P2;PMS_P1;PMS_P2;Temp;Humidity;BMP_temperature;BMP_pressure;BME280_temperature;BME280_humidity;BME280_pressure;Samples;Min_cycle;Max_cycle;Signal;HPM_P1;HPM_P2
2023/08/01 00:00:28;;;;;;;1.17;0.80;;;;;;;17.89;100.00;99071.19;5098536;28;20298;-72
2023/08/01 00:02:58;;;;;;;2.47;0.93;;;;;;;18.03;100.00;99073.44;5080877;28;20588;-71
2023/08/01 00:05:29;;;;;;;3.58;0.90;;;;;;;18.02;100.00;99071.78;5099718;28;20036;-71
2023/08/01 00:07:59;;;;;;;5.07;1.00;;;;;;;18.07;100.00;99065.09;5098219;28;20110;-72
2023/08/01 00:10:29;;;;;;;4.57;0.90;;;;;;;18.10;100.00;99051.59;5098429;28;20152;-71
2023/08/01 00:13:00;;;;;;;6.05;0.82;;;;;;;17.98;100.00;99034.19;5097122;28;20034;-72
2023/08/01 00:15:30;;;;;;;1.55;0.80;;;;;;;18.01;100.00;99014.59;5097090;28;20023;-71
2023/08/01 00:18:00;;;;;;;1.67;0.80;;;;;;;18.01;100.00;99010.09;5096924;28;20473;-71
2023/08/01 00:20:31;;;;;;;4.95;0.95;;;;;;;17.98;100.00;99023.63;5101869;28;20043;-71
2023/08/01 00:23:01;;;;;;;3.88;0.90;;;;;;;18.08;100.00;99029.75;5086674;28;20036;-71
2023/08/01 00:25:31;;;;;;;2.50;1.10;;;;;;;18.16;100.00;99021.94;5105116;28;20028;-71
2023/08/01 00:28:02;;;;;;;2.55;1.00;;;;;;;18.08;100.00;99020.97;5105167;28;20057;-71
2023/08/01 00:30:32;;;;;;;4.20;1.25;;;;;;;18.09;100.00;99012.06;5106140;28;20043;-71
2023/08/01 00:33:02;;;;;;;4.28;0.70;;;;;;;17.96;100.00;98999.13;5104352;28;20023;-71
2023/08/01 00:35:32;;;;;;;1.98;0.90;;;;;;;17.90;100.00;98997.03;5106568;28;20031;-72
2023/08/01 00:38:03;;;;;;;3.75;1.05;;;;;;;17.88;100.00;98980.50;5101700;28;20382;-71
2023/08/01 00:40:34;;;;;;;2.67;1.23;;;;;;;17.92;100.00;98987.16;5095951;28;20031;-72
2023/08/01 00:43:04;;;;;;;1.88;1.00;;;;;;;17.94;100.00;98981.72;5095305;28;20035;-72
2023/08/01 00:45:34;;;;;;;2.33;0.90;;;;;;;17.91;100.00;98971.44;5096890;28;20039;-71
2023/08/01 00:48:05;;;;;;;1.75;0.90;;;;;;;17.96;100.00;98983.25;5079930;28;20436;-71
2023/08/01 00:50:35;;;;;;;3.30;1.10;;;;;;;17.89;100.00;98973.38;5097889;28;20031;-72
2023/08/01 00:53:06;;;;;;;3.10;1.10;;;;;;;17.85;100.00;98967.53;5092827;28;20027;-72
2023/08/01 00:55:36;;;;;;;2.88;1.00;;;;;;;18.00;100.00;98962.69;5105707;28;20542;-71
2023/08/01 00:58:06;;;;;;;2.45;0.90;;;;;;;17.92;100.00;98962.53;5106073;28;20028;-71
2023/08/01 01:00:38;;;;;;;2.70;0.95;;;;;;;17.89;100.00;98950.44;5101488;28;20030;-71
2023/08/01 01:03:08;;;;;;;3.15;1.00;;;;;;;17.87;100.00;98946.25;5118597;28;20092;-71
2023/08/01 01:05:47;;;;;;;3.55;1.08;;;;;;;17.76;100.00;98951.69;5097922;28;20493;-71
2023/08/01 01:08:18;;;;;;;2.67;1.00;;;;;;;17.82;100.00;98949.31;5091577;28;20023;-71
2023/08/01 01:10:48;;;;;;;3.88;1.00;;;;;;;17.86;100.00;98944.59;5124223;28;20114;-69
2023/08/01 01:13:18;;;;;;;4.53;0.90;;;;;;;17.82;100.00;98948.50;5114122;28;20484;-71
2023/08/01 01:15:48;;;;;;;3.15;1.10;;;;;;;17.86;100.00;98949.88;5156748;23;20313;-71
2023/08/01 01:18:19;;;;;;;1.80;0.82;;;;;;;17.89;100.00;98947.81;5140720;28;20121;-73
2023/08/01 01:20:49;;;;;;;3.50;1.08;;;;;;;17.86;100.00;98940.13;5144534;28;20554;-72
2023/08/01 01:23:21;;;;;;;3.30;0.98;;;;;;;17.92;100.00;98939.59;5144632;28;20022;-74
2023/08/01 01:25:52;;;;;;;1.48;0.70;;;;;;;17.90;100.00;98930.13;5152423;28;20028;-73
2023/08/01 01:28:23;;;;;;;1.88;1.00;;;;;;;17.89;100.00;98931.94;5143608;28;20405;-72
2023/08/01 01:30:55;;;;;;;2.58;1.02;;;;;;;17.89;100.00;98924.00;5145232;28;20469;-72
2023/08/01 01:33:25;;;;;;;3.88;0.90;;;;;;;17.85;100.00;98917.31;5135231;28;20110;-72
2023/08/01 01:35:55;;;;;;;5.28;1.00;;;;;;;17.84;100.00;98915.66;5143489;28;20540;-73
2023/08/01 01:38:26;;;;;;;1.85;1.00;;;;;;;17.84;100.00;98912.19;5143928;28;20430;-72
2023/08/01 01:40:56;;;;;;;2.40;1.00;;;;;;;17.90;100.00;98914.25;5137368;28;20121;-73
2023/08/01 01:43:26;;;;;;;3.88;1.00;;;;;;;17.84;100.00;98912.19;5147944;28;20324;-72
2023/08/01 01:45:57;;;;;;;1.73;0.90;;;;;;;17.92;100.00;98912.31;5152741;28;20383;-72
2023/08/01 01:48:27;;;;;;;2.97;1.20;;;;;;;17.87;100.00;98910.09;5137673;28;20037;-72
2023/08/01 01:50:57;;;;;;;2.73;1.10;;;;;;;17.93;100.00;98900.75;5150844;28;20024;-73
2023/08/01 01:53:27;;;;;;;7.75;1.38;;;;;;;17.97;100.00;98904.81;5145842;28;20275;-72
2023/08/01 01:55:58;;;;;;;2.20;1.00;;;;;;;18.03;100.00;98899.75;5144231;28;20052;-73
2023/08/01 01:58:28;;;;;;;1.97;0.93;;;;;;;17.92;100.00;98899.94;5134626;28;20122;-72
2023/08/01 02:00:58;;;;;;;4.15;0.90;;;;;;;18.08;100.00;98899.34;5164437;28;20279;-72
2023/08/01 02:03:28;;;;;;;3.45;1.00;;;;;;;18.03;100.00;98898.94;5144983;28;20084;-73
2023/08/01 02:05:59;;;;;;;2.92;1.00;;;;;;;18.03;100.00;98898.94;5158417;28;20027;-72
2023/08/01 02:08:30;;;;;;;2.70;0.93;;;;;;;17.98;100.00;98890.63;5142135;28;20035;-72
2023/08/01 02:11:00;;;;;;;2.25;0.90;;;;;;;17.98;100.00;98874.75;5162948;28;20406;-73
2023/08/01 02:13:32;;;;;;;2.70;0.93;;;;;;;17.93;100.00;98888.38;5143379;28;20033;-72
2023/08/01 02:16:02;;;;;;;2.03;0.90;;;;;;;18.04;100.00;98880.28;5142538;28;20286;-72
2023/08/01 02:18:32;;;;;;;3.75;1.02;;;;;;;17.97;100.00;98870.44;5218079;28;20446;-72
2023/08/01 02:21:03;;;;;;;2.30;1.00;;;;;;;18.03;100.00;98864.56;5151101;28;20396;-73
2023/08/01 02:23:36;;;;;;;1.17;0.80;;;;;;;17.98;100.00;98864.19;5145781;28;20290;-73
2023/08/01 02:26:08;;;;;;;3.00;0.90;;;;;;;18.00;100.00;98854.28;5138981;28;20353;-73
2023/08/01 02:28:38;;;;;;;3.72;1.00;;;;;;;17.97;100.00;98862.50;5151844;28;20023;-73
2023/08/01 02:31:08;;;;;;;3.60;1.00;;;;;;;17.99;100.00;98856.09;5142197;28;20042;-72
2023/08/01 02:33:39;;;;;;;1.80;0.98;;;;;;;17.93;100.00;98864.59;5153075;28;20019;-73
2023/08/01 02:36:09;;;;;;;5.35;1.10;;;;;;;17.92;100.00;98862.06;5141856;28;20039;-73
2023/08/01 02:38:39;;;;;;;2.00;1.00;;;;;;;17.74;100.00;98850.56;5142045;28;20038;-72
2023/08/01 02:41:09;;;;;;;3.20;1.20;;;;;;;17.84;100.00;98835.53;5144200;28;20507;-72
2023/08/01 02:43:41;;;;;;;3.70;0.90;;;;;;;17.84;100.00;98830.25;5131441;28;20038;-72
2023/08/01 02:46:11;;;;;;;3.38;1.27;;;;;;;17.87;100.00;98832.59;5143728;28;20027;-72
2023/08/01 02:48:41;;;;;;;2.90;1.08;;;;;;;17.92;100.00;98822.44;5140816;28;20079;-72
2023/08/01 02:51:12;;;;;;;4.55;1.38;;;;;;;17.84;100.00;98814.41;5130630;28;20031;-73
2023/08/01 02:53:42;;;;;;;2.10;1.20;;;;;;;17.85;100.00;98811.59;5131421;28;20026;-72
2023/08/01 02:56:12;;;;;;;2.75;1.30;;;;;;;17.87;100.00;98804.38;5131964;28;20027;-72
2023/08/01 02:58:43;;;;;;;3.25;1.50;;;;;;;17.90;100.00;98798.81;5129903;28;20022;-73
2023/08/01 03:01:13;;;;;;;2.85;1.30;;;;;;;17.99;100.00;98791.81;5131600;28;20528;-72
2023/08/01 03:03:43;;;;;;;1.67;1.05;;;;;;;17.90;100.00;98782.09;5133507;28;20038;-72
2023/08/01 03:06:15;;;;;;;3.67;1.00;;;;;;;17.82;100.00;98779.34;5140827;28;20030;-72
2023/08/01 03:08:45;;;;;;;4.47;1.15;;;;;;;17.80;100.00;98770.75;5148280;28;20069;-73
2023/08/01 03:11:15;;;;;;;3.25;1.20;;;;;;;17.76;100.00;98769.34;5132247;28;20496;-72
2023/08/01 03:13:46;;;;;;;3.15;1.17;;;;;;;17.78;100.00;98762.94;5132736;28;20022;-73
2023/08/01 03:16:16;;;;;;;4.47;1.05;;;;;;;17.82;100.00;98771.41;5132468;28;20019;-72
2023/08/01 03:18:47;;;;;;;1.90;1.08;;;;;;;17.77;100.00;98761.28;5133791;28;20163;-72
2023/08/01 03:21:17;;;;;;;4.05;1.15;;;;;;;17.73;100.00;98753.78;5133681;28;20134;-73
2023/08/01 03:23:48;;;;;;;5.43;1.02;;;;;;;17.74;100.00;98755.44;5131497;28;20411;-72
2023/08/01 03:26:18;;;;;;;3.00;1.30;;;;;;;17.77;100.00;98771.00;5133071;28;20031;-72
2023/08/01 03:28:48;;;;;;;3.28;1.23;;;;;;;17.75;100.00;98762.38;5131497;28;20052;-72
2023/08/01 03:31:19;;;;;;;4.25;1.25;;;;;;;17.78;100.00;98764.72;5133817;28;20079;-74
2023/08/01 03:33:49;;;;;;;3.08;1.20;;;;;;;17.72;100.00;98760.88;5130603;28;20046;-72
2023/08/01 03:36:20;;;;;;;2.35;1.00;;;;;;;17.72;100.00;98752.94;5133452;28;20526;-73
2023/08/01 03:38:50;;;;;;;1.48;0.93;;;;;;;17.76;100.00;98748.19;5129215;28;20080;-72
2023/08/01 03:41:20;;;;;;;6.82;1.27;;;;;;;17.72;100.00;98741.53;5133674;28;20035;-73
2023/08/01 03:43:51;;;;;;;2.00;1.00;;;;;;;17.75;100.00;98741.25;5129668;28;20733;-72
2023/08/01 03:46:21;;;;;;;5.57;1.13;;;;;;;17.70;100.00;98749.63;5133765;28;20030;-72
2023/08/01 03:48:51;;;;;;;7.47;1.10;;;;;;;17.76;100.00;98748.19;5130970;28;20037;-73
2023/08/01 03:51:21;;;;;;;2.78;1.35;;;;;;;17.79;100.00;98753.22;5134189;28;20037;-72
2023/08/01 03:53:52;;;;;;;3.95;1.40;;;;;;;17.76;100.00;98745.53;5131602;28;20084;-73
2023/08/01 03:56:22;;;;;;;1.67;0.90;;;;;;;17.68;100.00;98743.63;5131575;28;20504;-72
2023/08/01 03:58:52;;;;;;;2.05;1.10;;;;;;;17.70;100.00;98733.78;5130159;28;20121;-72
2023/08/01 04:01:23;;;;;;;2.10;1.00;;;;;;;17.85;100.00;98736.78;5131749;28;20053;-73
2023/08/01 04:03:53;;;;;;;5.95;1.15;;;;;;;17.74;100.00;98734.28;5131683;28;20484;-72
2023/08/01 04:06:23;;;;;;;2.10;1.00;;;;;;;17.80;100.00;98731.09;5140536;28;20041;-72
2023/08/01 04:08:56;;;;;;;2.08;0.98;;;;;;;17.83;100.00;98707.00;5130610;28;20027;-73
2023/08/01 04:11:27;;;;;;;2.33;1.00;;;;;;;17.85;100.00;98718.28;5133059;28;20031;-73
2023/08/01 04:13:57;;;;;;;2.33;1.20;;;;;;;17.82;100.00;98731.78;5131878;28;20031;-73
2023/08/01 04:16:27;;;;;;;3.05;1.13;;;;;;;17.91;100.00;98734.38;5131364;28;20088;-72
2023/08/01 04:18:58;;;;;;;3.60;1.40;;;;;;;17.91;100.00;98733.53;5129443;28;20034;-72
2023/08/01 04:21:28;;;;;;;6.72;1.40;;;;;;;17.85;100.00;98737.59;5133505;28;20270;-72
2023/08/01 04:23:58;;;;;;;7.43;1.50;;;;;;;17.91;100.00;98728.25;5131947;28;20027;-72
2023/08/01 04:26:29;;;;;;;3.40;1.55;;;;;;;17.88;100.00;98725.91;5132200;28;20039;-73
2023/08/01 04:28:59;;;;;;;3.95;1.70;;;;;;;17.92;100.00;98725.47;5131263;28;20030;-72
2023/08/01 04:31:29;;;;;;;5.43;1.90;;;;;;;18.06;100.00;98740.03;5133229;28;20038;-73
2023/08/01 04:34:00;;;;;;;3.38;1.38;;;;;;;17.95;100.00;98737.56;5130869;28;20535;-73
2023/08/01 04:36:30;;;;;;;6.53;1.50;;;;;;;17.87;100.00;98734.81;5132416;28;20419;-72
2023/08/01 04:39:00;;;;;;;5.53;1.10;;;;;;;17.95;100.00;98727.81;5130759;28;20278;-72
2023/08/01 04:41:30;;;;;;;2.95;1.65;;;;;;;17.93;100.00;98721.00;5133207;28;20205;-72
2023/08/01 04:44:01;;;;;;;2.53;1.17;;;;;;;17.93;100.00;98729.78;5133662;28;20034;-72
2023/08/01 04:46:31;;;;;;;3.03;1.15;;;;;;;17.94;100.00;98725.31;5132499;28;20278;-72
2023/08/01 04:49:01;;;;;;;2.15;0.82;;;;;;;17.98;100.00;98724.88;5132626;28;20063;-72
2023/08/01 04:51:31;;;;;;;3.80;1.20;;;;;;;18.07;100.00;98723.19;5134014;28;20397;-73
2023/08/01 04:54:02;;;;;;;2.60;1.00;;;;;;;18.08;100.00;98716.91;5134255;28;20050;-73
2023/08/01 04:56:32;;;;;;;3.28;1.27;;;;;;;17.99;100.00;98720.44;5136110;28;20034;-72
2023/08/01 04:59:03;;;;;;;2.63;1.00;;;;;;;17.99;100.00;98712.50;5133297;28;20034;-72
2023/08/01 05:01:33;;;;;;;4.53;1.23;;;;;;;18.04;100.00;98712.91;5134808;28;20035;-71
2023/08/01 05:04:03;;;;;;;3.90;1.10;;;;;;;18.00;100.00;98708.88;5135519;28;20400;-72
2023/08/01 05:06:33;;;;;;;1.92;1.00;;;;;;;18.05;100.00;98717.22;5146343;28;20038;-72
2023/08/01 05:09:04;;;;;;;2.83;0.88;;;;;;;18.11;100.00;98721.91;5133316;28;20297;-72
2023/08/01 05:11:34;;;;;;;5.47;1.10;;;;;;;18.08;100.00;98717.75;5133361;28;20057;-72
2023/08/01 05:14:05;;;;;;;4.20;0.90;;;;;;;18.01;100.00;98714.00;5134302;28;20304;-72
2023/08/01 05:16:35;;;;;;;3.70;1.10;;;;;;;18.10;100.00;98718.44;5136252;28;20647;-73
2023/08/01 05:19:06;;;;;;;4.30;0.90;;;;;;;18.08;100.00;98720.41;5133001;28;20034;-72
2023/08/01 05:21:36;;;;;;;2.15;0.70;;;;;;;18.11;100.00;98722.75;5135984;28;20073;-73
2023/08/01 05:24:06;;;;;;;1.85;0.80;;;;;;;18.05;100.00;98722.50;5134503;28;21323;-72
2023/08/01 05:26:37;;;;;;;2.88;1.15;;;;;;;18.12;100.00;98723.56;5134105;28;20035;-72
2023/08/01 05:29:07;;;;;;;2.63;0.80;;;;;;;18.00;100.00;98722.91;5132219;28;20069;-72
2023/08/01 05:31:37;;;;;;;1.35;0.50;;;;;;;18.14;100.00;98717.16;5133244;28;20053;-73
2023/08/01 05:34:08;;;;;;;1.88;0.90;;;;;;;18.15;100.00;98723.28;5131717;28;20113;-72
2023/08/01 05:36:38;;;;;;;2.53;0.50;;;;;;;18.11;100.00;98714.81;5133741;28;20216;-72
2023/08/01 05:39:09;;;;;;;0.85;0.30;;;;;;;18.04;100.00;98716.34;5132979;28;20050;-72
2023/08/01 05:41:40;;;;;;;1.75;0.40;;;;;;;18.05;100.00;98714.56;5132993;28;20031;-73
2023/08/01 05:44:10;;;;;;;0.80;0.30;;;;;;;18.00;100.00;98715.00;5133510;28;20115;-73
2023/08/01 05:46:41;;;;;;;0.70;0.30;;;;;;;18.07;100.00;98723.19;5141156;28;20485;-73
2023/08/01 05:49:11;;;;;;;0.85;0.43;;;;;;;18.07;100.00;98731.97;5130484;28;20022;-73
2023/08/01 05:51:41;;;;;;;1.45;0.60;;;;;;;18.08;100.00;98735.41;5131223;28;20027;-73
2023/08/01 05:54:12;;;;;;;3.35;0.40;;;;;;;18.02;100.00;98736.81;5134126;28;20049;-73
2023/08/01 05:56:42;;;;;;;0.73;0.40;;;;;;;18.20;100.00;98744.84;5132881;28;20027;-72
2023/08/01 05:59:12;;;;;;;0.57;0.40;;;;;;;18.09;100.00;98735.28;5130396;28;20026;-72
2023/08/01 06:01:43;;;;;;;0.30;0.22;;;;;;;18.08;100.00;98738.91;5128059;28;20049;-72
2023/08/01 06:04:13;;;;;;;0.43;0.20;;;;;;;17.95;100.00;98740.19;5127034;28;20730;-72
2023/08/01 06:06:44;;;;;;;1.20;0.30;;;;;;;17.96;100.00;98747.16;5127250;28;20119;-72
2023/08/01 06:09:14;;;;;;;0.70;0.20;;;;;;;17.88;100.00;98749.69;5131673;28;20035;-72
2023/08/01 06:11:44;;;;;;;0.35;0.13;;;;;;;17.91;100.00;98754.69;5134735;28;20300;-72
2023/08/01 06:14:15;;;;;;;1.35;0.20;;;;;;;17.88;100.00;98757.63;5129464;28;20038;-72
2023/08/01 06:16:45;;;;;;;0.20;0.15;;;;;;;17.96;100.00;98752.44;5124948;28;20031;-72
2023/08/01 06:19:16;;;;;;;0.20;0.10;;;;;;;17.89;100.00;98751.34;5127367;28;20606;-73
2023/08/01 06:21:46;;;;;;;0.30;0.20;;;;;;;17.84;100.00;98764.19;5132667;28;20174;-75
2023/08/01 06:24:17;;;;;;;0.25;0.20;;;;;;;17.82;100.00;98764.31;5129365;28;20050;-75
2023/08/01 06:26:47;;;;;;;1.20;0.30;;;;;;;17.80;100.00;98763.63;5130192;28;20054;-75
2023/08/01 06:29:17;;;;;;;0.52;0.20;;;;;;;17.65;100.00;98751.03;5125163;28;20431;-74
2023/08/01 06:31:48;;;;;;;0.52;0.20;;;;;;;17.78;100.00;98751.53;5130033;28;20022;-72
2023/08/01 06:34:18;;;;;;;1.15;0.30;;;;;;;17.63;100.00;98747.69;5129752;28;20058;-74
2023/08/01 06:36:48;;;;;;;0.95;0.25;;;;;;;17.69;100.00;98752.41;5126798;28;20042;-73
2023/08/01 06:39:19;;;;;;;1.23;0.30;;;;;;;17.74;100.00;98750.16;5131431;28;20137;-74
2023/08/01 06:41:49;;;;;;;0.77;0.30;;;;;;;17.85;100.00;98760.56;5135110;28;20034;-73
2023/08/01 06:44:19;;;;;;;0.68;0.40;;;;;;;17.77;100.00;98756.00;5129362;28;20088;-74
2023/08/01 06:46:50;;;;;;;2.22;0.30;;;;;;;17.68;100.00;98758.66;5133464;28;20026;-73
2023/08/01 06:49:20;;;;;;;0.40;0.30;;;;;;;17.85;100.00;98768.50;5129783;28;20027;-74
2023/08/01 06:51:51;;;;;;;0.60;0.40;;;;;;;17.78;100.00;98764.72;5131024;28;20034;-73
2023/08/01 06:54:21;;;;;;;2.38;0.38;;;;;;;17.74;100.00;98756.28;5131856;28;20095;-74
2023/08/01 06:56:54;;;;;;;1.58;0.40;;;;;;;17.80;100.00;98757.53;5125466;28;20538;-74
2023/08/01 06:59:24;;;;;;;0.50;0.30;;;;;;;17.82;100.00;98753.75;5217029;28;20039;-74
2023/08/01 07:01:55;;;;;;;1.15;0.60;;;;;;;17.91;100.00;98752.03;5126661;28;20033;-74
2023/08/01 07:04:25;;;;;;;1.55;0.65;;;;;;;17.93;100.00;98761.50;5129384;28;20058;-74
2023/08/01 07:06:56;;;;;;;2.67;0.80;;;;;;;18.10;100.00;98763.38;5126806;28;20054;-75
2023/08/01 07:09:26;;;;;;;2.00;0.82;;;;;;;18.01;100.00;98774.00;5130849;28;20524;-75
2023/08/01 07:11:56;;;;;;;1.13;0.63;;;;;;;18.10;100.00;98773.13;5127219;28;20039;-73
2023/08/01 07:14:43;;;;;;;1.63;0.70;;;;;;;18.06;100.00;98769.09;5150556;23;20034;-75
2023/08/01 07:17:13;;;;;;;3.05;0.70;;;;;;;17.97;100.00;98780.56;5182380;28;20533;-76
2023/08/01 07:19:44;;;;;;;2.73;0.90;;;;;;;17.99;100.00;98789.19;5208977;28;20025;-78
2023/08/01 07:22:14;;;;;;;3.03;0.90;;;;;;;17.89;100.00;98785.72;5208132;28;20322;-77
2023/08/01 07:24:44;;;;;;;1.10;0.75;;;;;;;17.95;100.00;98785.13;5209175;28;20466;-78
2023/08/01 07:27:14;;;;;;;2.60;0.80;;;;;;;18.01;100.00;98795.97;5183991;28;20032;-78
2023/08/01 07:29:45;;;;;;;1.88;1.00;;;;;;;17.95;100.00;98791.25;5185813;28;20030;-77
2023/08/01 07:32:15;;;;;;;3.13;1.13;;;;;;;18.08;100.00;98794.44;5161256;28;20022;-77
2023/08/01 07:34:45;;;;;;;0.95;0.68;;;;;;;18.12;100.00;98795.81;5169349;28;20036;-78
2023/08/01 07:37:16;;;;;;;0.82;0.70;;;;;;;17.86;100.00;98797.41;5180669;28;20040;-78
2023/08/01 07:39:46;;;;;;;2.35;0.88;;;;;;;18.10;100.00;98796.91;5182448;28;21136;-77
2023/08/01 07:42:16;;;;;;;1.80;1.00;;;;;;;18.07;100.00;98806.00;5180759;28;20044;-78
2023/08/01 07:44:46;;;;;;;3.25;1.00;;;;;;;18.12;100.00;98802.88;5184657;28;20040;-77
2023/08/01 07:47:17;;;;;;;2.10;0.67;;;;;;;18.03;100.00;98799.28;5182612;28;20029;-78
2023/08/01 07:49:47;;;;;;;2.08;0.80;;;;;;;18.05;100.00;98815.03;5188719;28;20358;-78
2023/08/01 07:52:18;;;;;;;1.75;0.70;;;;;;;17.95;100.00;98814.22;5165762;28;20503;-78
2023/08/01 07:54:48;;;;;;;2.90;0.95;;;;;;;18.17;100.00;98821.81;5182135;28;20031;-75
2023/08/01 07:57:18;;;;;;;1.85;0.70;;;;;;;17.93;100.00;98824.09;5184349;28;20022;-78
2023/08/01 07:59:49;;;;;;;1.65;0.70;;;;;;;17.95;100.00;98819.50;5167448;28;20028;-75
2023/08/01 08:02:19;;;;;;;1.40;0.80;;;;;;;17.93;100.00;98821.44;5183747;28;20026;-77
2023/08/01 08:04:49;;;;;;;4.07;1.30;;;;;;;17.65;100.00;98828.47;5184514;28;20052;-77
2023/08/01 08:07:19;;;;;;;3.17;1.30;;;;;;;17.84;100.00;98820.50;5184073;28;20038;-77
2023/08/01 08:09:50;;;;;;;4.43;1.43;;;;;;;17.83;100.00;98828.59;5181805;28;20280;-77
2023/08/01 08:12:22;;;;;;;5.35;2.00;;;;;;;17.74;100.00;98822.34;5183099;28;20292;-78
2023/08/01 08:14:52;;;;;;;7.82;2.10;;;;;;;17.71;100.00;98822.63;5183319;28;20060;-77
2023/08/01 08:17:22;;;;;;;3.17;1.73;;;;;;;17.78;100.00;98828.16;5180031;28;20109;-77
2023/08/01 08:19:52;;;;;;;6.80;2.10;;;;;;;17.71;100.00;98835.00;5190527;28;20276;-78
2023/08/01 08:22:23;;;;;;;5.53;2.20;;;;;;;17.86;100.00;98829.13;5182148;28;20594;-78
2023/08/01 08:24:53;;;;;;;4.90;2.23;;;;;;;18.02;100.00;98824.06;5170036;28;20029;-78
2023/08/01 08:27:23;;;;;;;4.90;2.25;;;;;;;17.83;100.00;98823.31;5188742;28;20833;-75
2023/08/01 08:29:55;;;;;;;5.20;2.08;;;;;;;18.06;100.00;98835.19;5185789;28;20646;-78
2023/08/01 08:32:25;;;;;;;4.60;2.00;;;;;;;18.25;100.00;98827.19;5189010;28;20076;-78
2023/08/01 08:34:55;;;;;;;9.35;2.50;;;;;;;18.35;100.00;98825.41;5186938;28;20435;-78
2023/08/01 08:37:25;;;;;;;4.88;2.05;;;;;;;18.51;100.00;98821.13;5188036;28;20022;-78
2023/08/01 08:39:56;;;;;;;4.18;1.80;;;;;;;18.69;100.00;98831.78;5188321;28;20400;-78
2023/08/01 08:42:26;;;;;;;4.05;2.08;;;;;;;18.81;100.00;98829.63;5188370;28;20042;-78
2023/08/01 08:45:00;;;;;;;6.13;1.95;;;;;;;18.87;100.00;98818.44;5185970;28;20048;-77
2023/08/01 08:47:35;;;;;;;4.82;1.90;;;;;;;18.77;100.00;98830.88;5169399;28;20056;-78
2023/08/01 08:50:06;;;;;;;3.92;2.03;;;;;;;19.00;100.00;98828.66;5186290;28;20044;-77
2023/08/01 08:52:37;;;;;;;5.15;2.13;;;;;;;18.97;100.00;98829.78;5170188;28;20033;-77
2023/08/01 08:55:08;;;;;;;4.82;2.05;;;;;;;19.05;100.00;98829.03;5185058;28;20041;-74
2023/08/01 08:57:39;;;;;;;6.18;2.35;;;;;;;19.00;100.00;98836.59;5187242;28;20450;-77
2023/08/01 09:00:11;;;;;;;5.38;2.20;;;;;;;19.17;100.00;98836.66;5188596;28;20049;-77
2023/08/01 09:02:41;;;;;;;5.47;2.35;;;;;;;19.08;100.00;98842.81;5180575;28;20037;-78
2023/08/01 09:05:12;;;;;;;7.07;2.30;;;;;;;19.30;100.00;98841.59;5187114;28;20022;-78
2023/08/01 09:07:47;;;;;;;5.90;2.15;;;;;;;19.47;100.00;98833.63;5191325;28;20029;-78
2023/08/01 09:10:17;;;;;;;6.93;2.28;;;;;;;19.41;100.00;98842.19;5187236;28;20029;-77
2023/08/01 09:12:48;;;;;;;6.07;2.17;;;;;;;19.10;100.00;98843.50;5186164;28;20181;-75
2023/08/01 09:15:19;;;;;;;4.70;2.03;;;;;;;19.91;100.00;98832.66;5167967;28;20588;-78
2023/08/01 09:17:56;;;;;;;3.70;1.85;;;;;;;20.62;100.00;98825.28;5177371;28;20028;-75
2023/08/01 09:20:39;;;;;;;9.30;1.92;;;;;;;21.32;100.00;98815.88;5185455;28;20034;-79
2023/08/01 09:23:11;;;;;;;5.95;2.00;;;;;;;22.25;100.00;98812.69;5185733;28;20042;-78
2023/08/01 09:25:41;;;;;;;4.75;1.85;;;;;;;22.03;99.65;98810.72;5188606;28;20030;-79
2023/08/01 09:28:24;;;;;;;4.57;1.73;;;;;;;21.98;100.00;98816.56;5182560;28;20026;-77
2023/08/01 09:30:56;;;;;;;5.15;2.10;;;;;;;23.08;97.93;98813.69;5183881;28;20139;-79
2023/08/01 09:33:38;;;;;;;4.63;1.73;;;;;;;23.65;92.08;98814.97;5187630;28;20053;-75
2023/08/01 09:36:09;;;;;;;5.43;1.90;;;;;;;23.58;91.80;98808.69;5184435;28;20495;-78
2023/08/01 09:38:40;;;;;;;5.15;1.70;;;;;;;23.58;92.57;98799.84;5165693;28;20033;-78
2023/08/01 09:41:20;;;;;;;4.35;1.73;;;;;;;23.64;93.88;98807.97;5183640;28;20039;-76
2023/08/01 09:43:50;;;;;;;10.40;2.13;;;;;;;22.19;92.32;98813.34;5185807;28;20029;-77
2023/08/01 09:46:20;;;;;;;5.38;1.70;;;;;;;21.46;97.14;98819.72;5172984;28;20040;-78
2023/08/01 09:48:51;;;;;;;6.07;1.77;;;;;;;21.91;97.21;98814.75;5185048;28;20088;-77
2023/08/01 09:51:21;;;;;;;4.25;1.90;;;;;;;23.09;94.29;98810.00;5186475;28;20647;-74
2023/08/01 09:53:55;;;;;;;4.20;1.60;;;;;;;23.40;92.76;98802.81;5181639;28;20017;-75
2023/08/01 09:56:27;;;;;;;4.18;1.55;;;;;;;23.04;90.42;98816.88;5185854;28;20037;-78
2023/08/01 09:58:59;;;;;;;3.15;1.52;;;;;;;22.89;92.11;98811.47;5182743;28;20057;-78
2023/08/01 10:01:32;;;;;;;4.68;1.80;;;;;;;22.88;90.69;98803.63;5184884;28;20029;-77
2023/08/01 10:04:03;;;;;;;4.30;1.70;;;;;;;23.24;89.91;98810.94;5185359;28;20315;-75
2023/08/01 10:06:38;;;;;;;4.38;1.70;;;;;;;23.57;88.62;98806.19;5184363;28;20519;-78
2023/08/01 10:09:11;;;;;;;4.88;1.40;;;;;;;24.11;87.60;98802.38;5183084;28;20084;-78
2023/08/01 10:11:42;;;;;;;4.22;1.35;;;;;;;23.82;86.85;98802.28;5169250;28;20025;-77
2023/08/01 10:14:13;;;;;;;4.32;1.20;;;;;;;24.00;89.99;98806.34;5182683;28;20078;-77
2023/08/01 10:16:43;;;;;;;3.95;1.20;;;;;;;23.42;87.47;98816.81;5184761;28;20022;-78
2023/08/01 10:19:14;;;;;;;3.08;1.17;;;;;;;23.15;89.35;98803.16;5186340;28;20022;-77
2023/08/01 10:21:46;;;;;;;3.83;1.40;;;;;;;23.10;89.30;98816.16;5185557;28;20034;-78
2023/08/01 10:24:17;;;;;;;5.78;1.52;;;;;;;22.47;90.26;98823.47;5182281;28;20030;-75
2023/08/01 10:26:48;;;;;;;3.72;1.50;;;;;;;22.28;88.40;98825.66;5182059;28;20507;-74
2023/08/01 10:29:18;;;;;;;4.05;1.20;;;;;;;21.99;90.02;98820.88;5183822;28;20037;-76
2023/08/01 10:31:53;;;;;;;2.88;1.27;;;;;;;21.70;90.21;98828.56;5186353;28;20357;-75
2023/08/01 10:34:23;;;;;;;3.38;1.63;;;;;;;21.31;93.69;98826.66;5183184;28;20411;-77
2023/08/01 10:36:56;;;;;;;5.18;1.55;;;;;;;21.25;93.00;98833.47;5192133;28;20036;-77
2023/08/01 10:39:27;;;;;;;5.65;1.23;;;;;;;21.13;94.63;98828.63;5181990;28;20351;-78
2023/08/01 10:42:03;;;;;;;5.10;1.70;;;;;;;20.85;97.48;98829.88;5185679;28;20271;-77
2023/08/01 10:44:35;;;;;;;3.53;1.50;;;;;;;21.03;96.44;98822.66;5187051;28;20022;-77
2023/08/01 10:47:06;;;;;;;3.17;1.55;;;;;;;20.98;94.49;98830.25;5183573;28;20033;-77
2023/08/01 10:49:42;;;;;;;4.53;1.42;;;;;;;20.88;95.22;98835.69;5170343;28;20044;-76
2023/08/01 10:52:28;;;;;;;5.45;1.40;;;;;;;20.83;95.46;98842.44;5166640;28;20018;-77
2023/08/01 10:55:00;;;;;;;4.85;1.55;;;;;;;20.76;99.54;98830.81;5183633;28;20037;-77
2023/08/01 10:57:48;;;;;;;3.65;1.20;;;;;;;21.33;96.52;98830.00;5181685;28;20133;-74
2023/08/01 11:00:19;;;;;;;2.72;1.23;;;;;;;21.29;97.90;98826.84;5182486;28;20605;-77
2023/08/01 11:02:54;;;;;;;2.85;1.30;;;;;;;21.39;96.85;98824.84;5181614;28;20036;-77
2023/08/01 11:05:26;;;;;;;4.65;1.70;;;;;;;21.65;94.66;98838.88;5160685;28;20495;-77
2023/08/01 11:07:58;;;;;;;3.20;1.40;;;;;;;21.56;90.63;98825.72;5183010;28;20032;-77
2023/08/01 11:10:30;;;;;;;4.93;1.35;;;;;;;21.61;90.89;98828.69;5188183;28;20088;-77
2023/08/01 11:13:00;;;;;;;5.70;1.40;;;;;;;21.61;91.66;98834.81;5187591;28;20021;-77
2023/08/01 11:15:31;;;;;;;3.58;1.27;;;;;;;21.43;91.60;98838.66;5166594;28;20025;-77
2023/08/01 11:18:02;;;;;;;6.20;1.20;;;;;;;21.85;90.09;98831.38;5183578;28;20507;-77
2023/08/01 11:20:38;;;;;;;4.25;1.10;;;;;;;22.06;89.08;98827.19;5165418;28;20033;-77
2023/08/01 11:23:08;;;;;;;2.65;1.00;;;;;;;22.18;87.55;98827.66;5183460;28;20113;-77
2023/08/01 11:25:45;;;;;;;3.10;1.13;;;;;;;22.13;86.41;98840.66;5187574;28;20117;-77
2023/08/01 11:28:16;;;;;;;3.17;1.20;;;;;;;21.93;85.04;98836.69;5184918;28;20128;-77
2023/08/01 11:30:47;;;;;;;1.88;1.10;;;;;;;21.99;86.71;98836.84;5182946;28;20120;-77
2023/08/01 11:33:23;;;;;;;2.60;1.20;;;;;;;22.18;86.90;98839.16;5167062;28;20108;-77
2023/08/01 11:35:59;;;;;;;4.18;1.25;;;;;;;22.33;90.77;98842.78;5182751;28;20021;-77
2023/08/01 11:38:33;;;;;;;4.07;1.42;;;;;;;22.75;88.50;98833.50;5182480;28;20292;-76
2023/08/01 11:41:04;;;;;;;3.40;1.10;;;;;;;22.59;83.51;98835.38;5182971;28;20381;-76
2023/08/01 11:43:41;;;;;;;4.93;1.20;;;;;;;22.65;84.06;98826.72;5182835;28;20038;-77